sensor_id;sensor_type;location;lat;lon;timestamp;pressure;altitude;pressure_sealevel;temperature;humidity
5522;BME280;2783;48.730;8.006;2023-02-03T00:01:27;101581.09;;;9.02;93.16
5522;BME280;2783;48.730;8.006;2023-02-03T00:03:53;101580.22;;;8.98;93.44
5522;BME280;2783;48.730;8.006;2023-02-03T00:06:18;101589.94;;;9.04;92.79
5522;BME280;2783;48.730;8.006;2023-02-03T00:08:43;101592.59;;;9.02;92.71
5522;BME280;2783;48.730;8.006;2023-02-03T00:11:09;101590.81;;;9.03;92.61
5522;BME280;2783;48.730;8.006;2023-02-03T00:13:34;101591.72;;;8.99;92.74
5522;BME280;2783;48.730;8.006;2023-02-03T00:15:59;101595.25;;;9.01;91.91
5522;BME280;2783;48.730;8.006;2023-02-03T00:18:26;101593.47;;;9.09;92.18
5522;BME280;2783;48.730;8.006;2023-02-03T00:20:51;101601.44;;;9.12;91.73
5522;BME280;2783;48.730;8.006;2023-02-03T00:23:17;101601.44;;;9.06;91.49
5522;BME280;2783;48.730;8.006;2023-02-03T00:25:42;101608.50;;;9.07;91.46
5522;BME280;2783;48.730;8.006;2023-02-03T00:28:07;101613.81;;;9.07;91.55
5522;BME280;2783;48.730;8.006;2023-02-03T00:30:33;101613.81;;;9.08;91.63
5522;BME280;2783;48.730;8.006;2023-02-03T00:32:58;101601.44;;;9.09;91.39
5522;BME280;2783;48.730;8.006;2023-02-03T00:35:23;101606.75;;;9.09;91.30
5522;BME280;2783;48.730;8.006;2023-02-03T00:37:50;101597.88;;;9.08;91.32
5522;BME280;2783;48.730;8.006;2023-02-03T00:40:15;101594.34;;;9.09;90.76
5522;BME280;2783;48.730;8.006;2023-02-03T00:42:40;101595.25;;;9.01;90.69
5522;BME280;2783;48.730;8.006;2023-02-03T00:45:06;101586.41;;;9.02;90.72
5522;BME280;2783;48.730;8.006;2023-02-03T00:47:31;101579.31;;;8.98;90.68
5522;BME280;2783;48.730;8.006;2023-02-03T00:49:56;101584.63;;;8.92;90.61
5522;BME280;2783;48.730;8.006;2023-02-03T00:52:22;101586.41;;;9.02;91.07
5522;BME280;2783;48.730;8.006;2023-02-03T00:54:47;101586.41;;;8.96;90.83
5522;BME280;2783;48.730;8.006;2023-02-03T00:57:12;101594.38;;;8.99;91.33
5522;BME280;2783;48.730;8.006;2023-02-03T00:59:37;101591.72;;;8.99;91.13
5522;BME280;2783;48.730;8.006;2023-02-03T01:02:03;101588.19;;;8.97;90.55
5522;BME280;2783;48.730;8.006;2023-02-03T01:04:28;101584.66;;;9.01;91.22
5522;BME280;2783;48.730;8.006;2023-02-03T01:06:53;101589.03;;;9.05;90.79
5522;BME280;2783;48.730;8.006;2023-02-03T01:09:23;101590.84;;;9.06;90.79
5522;BME280;2783;48.730;8.006;2023-02-03T01:11:49;101578.41;;;9.08;91.20
5522;BME280;2783;48.730;8.006;2023-02-03T01:14:14;101582.88;;;9.06;91.24
5522;BME280;2783;48.730;8.006;2023-02-03T01:16:39;101587.28;;;9.02;91.41
5522;BME280;2783;48.730;8.006;2023-02-03T01:19:05;101592.59;;;9.04;91.47
5522;BME280;2783;48.730;8.006;2023-02-03T01:21:30;101587.28;;;9.02;91.78
5522;BME280;2783;48.730;8.006;2023-02-03T01:23:55;101585.50;;;9.04;91.98
5522;BME280;2783;48.730;8.006;2023-02-03T01:26:22;101574.91;;;8.97;92.38
5522;BME280;2783;48.730;8.006;2023-02-03T01:28:52;101564.28;;;9.01;92.81
5522;BME280;2783;48.730;8.006;2023-02-03T01:31:21;101565.19;;;8.96;93.61
5522;BME280;2783;48.730;8.006;2023-02-03T01:33:47;101558.09;;;8.92;94.95
5522;BME280;2783;48.730;8.006;2023-02-03T01:36:16;101566.97;;;8.91;95.82
5522;BME280;2783;48.730;8.006;2023-02-03T01:38:42;101566.06;;;8.89;96.67
5522;BME280;2783;48.730;8.006;2023-02-03T01:41:10;101566.09;;;8.86;97.20
5522;BME280;2783;48.730;8.006;2023-02-03T01:43:37;101574.06;;;8.83;98.25
5522;BME280;2783;48.730;8.006;2023-02-03T01:46:45;101582.88;;;8.82;98.69
5522;BME280;2783;48.730;8.006;2023-02-03T01:48:52;101583.78;;;8.82;99.20
5522;BME280;2783;48.730;8.006;2023-02-03T01:51:17;101588.19;;;8.79;99.19
5522;BME280;2783;48.730;8.006;2023-02-03T01:53:43;101595.25;;;8.80;99.26
5522;BME280;2783;48.730;8.006;2023-02-03T01:56:10;101589.06;;;8.82;99.40
5522;BME280;2783;48.730;8.006;2023-02-03T01:58:36;101579.34;;;8.80;99.20
5522;BME280;2783;48.730;8.006;2023-02-03T02:01:03;101563.44;;;8.72;99.81
5522;BME280;2783;48.730;8.006;2023-02-03T02:03:33;101568.75;;;8.71;100.00
5522;BME280;2783;48.730;8.006;2023-02-03T02:06:02;101555.50;;;8.66;99.97
5522;BME280;2783;48.730;8.006;2023-02-03T02:08:28;101551.03;;;8.67;100.00
5522;BME280;2783;48.730;8.006;2023-02-03T02:10:54;101547.53;;;8.65;100.00
5522;BME280;2783;48.730;8.006;2023-02-03T02:13:20;101543.13;;;8.71;100.00
5522;BME280;2783;48.730;8.006;2023-02-03T02:15:53;101520.13;;;8.64;100.00
5522;BME280;2783;48.730;8.006;2023-02-03T02:21:15;101479.44;;;8.61;99.72
5522;BME280;2783;48.730;8.006;2023-02-03T02:23:59;101459.13;;;8.61;99.77
5522;BME280;2783;48.730;8.006;2023-02-03T02:26:40;101457.34;;;8.59;99.95
5522;BME280;2783;48.730;8.006;2023-02-03T02:29:11;101448.50;;;8.58;99.89
5522;BME280;2783;48.730;8.006;2023-02-03T02:34:34;101487.44;;;8.56;100.00
5522;BME280;2783;48.730;8.006;2023-02-03T02:37:07;101492.72;;;8.52;100.00
5522;BME280;2783;48.730;8.006;2023-02-03T02:39:39;101491.81;;;8.57;100.00
5522;BME280;2783;48.730;8.006;2023-02-03T02:42:13;101504.19;;;8.55;100.00
5522;BME280;2783;48.730;8.006;2023-02-03T02:44:48;101492.72;;;8.55;100.00
5522;BME280;2783;48.730;8.006;2023-02-03T02:47:16;101478.59;;;8.53;100.00
5522;BME280;2783;48.730;8.006;2023-02-03T02:52:08;101457.38;;;8.53;100.00
5522;BME280;2783;48.730;8.006;2023-02-03T02:54:36;101468.84;;;8.49;100.00
5522;BME280;2783;48.730;8.006;2023-02-03T02:57:03;101467.06;;;8.55;100.00
5522;BME280;2783;48.730;8.006;2023-02-03T02:59:30;101466.22;;;8.55;100.00
5522;BME280;2783;48.730;8.006;2023-02-03T03:01:55;101458.25;;;8.56;100.00
5522;BME280;2783;48.730;8.006;2023-02-03T03:04:22;101460.91;;;8.58;100.00
5522;BME280;2783;48.730;8.006;2023-02-03T03:06:58;101456.47;;;8.57;100.00
5522;BME280;2783;48.730;8.006;2023-02-03T03:09:35;101454.72;;;8.51;100.00
5522;BME280;2783;48.730;8.006;2023-02-03T03:12:10;101460.03;;;8.50;100.00
5522;BME280;2783;48.730;8.006;2023-02-03T03:14:40;101443.22;;;8.51;100.00
5522;BME280;2783;48.730;8.006;2023-02-03T03:17:07;101447.63;;;8.47;99.78
5522;BME280;2783;48.730;8.006;2023-02-03T03:19:36;101443.22;;;8.39;100.00
5522;BME280;2783;48.730;8.006;2023-02-03T03:22:03;101452.06;;;8.50;99.03
5522;BME280;2783;48.730;8.006;2023-02-03T03:24:31;101451.19;;;8.48;98.90
5522;BME280;2783;48.730;8.006;2023-02-03T03:27:43;101446.75;;;8.47;98.89
5522;BME280;2783;48.730;8.006;2023-02-03T03:29:51;101437.94;;;8.48;98.71
5522;BME280;2783;48.730;8.006;2023-02-03T03:32:17;101443.22;;;8.48;98.60
5522;BME280;2783;48.730;8.006;2023-02-03T03:34:43;101464.44;;;8.45;98.31
5522;BME280;2783;48.730;8.006;2023-02-03T03:37:10;101466.19;;;8.49;98.23
5522;BME280;2783;48.730;8.006;2023-02-03T03:39:41;101469.75;;;8.51;98.73
5522;BME280;2783;48.730;8.006;2023-02-03T03:42:32;101472.38;;;8.55;98.46
5522;BME280;2783;48.730;8.006;2023-02-03T03:44:59;101485.66;;;8.49;99.39
5522;BME280;2783;48.730;8.006;2023-02-03T03:47:32;101492.72;;;8.44;100.00
5522;BME280;2783;48.730;8.006;2023-02-03T03:49:59;101505.97;;;8.44;100.00
5522;BME280;2783;48.730;8.006;2023-02-03T03:52:27;101521.88;;;8.44;100.00
5522;BME280;2783;48.730;8.006;2023-02-03T03:54:54;101520.13;;;8.42;100.00
5522;BME280;2783;48.730;8.006;2023-02-03T03:57:25;101513.06;;;8.33;100.00
5522;BME280;2783;48.730;8.006;2023-02-03T03:59:52;101521.00;;;8.35;100.00
5522;BME280;2783;48.730;8.006;2023-02-03T04:02:18;101515.69;;;8.29;100.00
5522;BME280;2783;48.730;8.006;2023-02-03T04:04:45;101528.97;;;8.35;100.00
5522;BME280;2783;48.730;8.006;2023-02-03T04:07:12;101521.03;;;8.32;99.56
5522;BME280;2783;48.730;8.006;2023-02-03T04:09:37;101530.72;;;8.30;99.52
5522;BME280;2783;48.730;8.006;2023-02-03T04:12:04;101536.91;;;8.27;98.66
5522;BME280;2783;48.730;8.006;2023-02-03T04:14:33;101536.91;;;8.32;98.51
5522;BME280;2783;48.730;8.006;2023-02-03T04:16:59;101528.97;;;8.39;97.84
5522;BME280;2783;48.730;8.006;2023-02-03T04:19:25;101529.84;;;8.41;98.34
5522;BME280;2783;48.730;8.006;2023-02-03T04:21:51;101532.50;;;8.40;97.68
5522;BME280;2783;48.730;8.006;2023-02-03T04:24:16;101527.19;;;8.46;97.57
5522;BME280;2783;48.730;8.006;2023-02-03T04:26:41;101534.25;;;8.45;97.12
5522;BME280;2783;48.730;8.006;2023-02-03T04:29:07;101532.50;;;8.47;97.21
5522;BME280;2783;48.730;8.006;2023-02-03T04:31:32;101517.47;;;8.48;97.12
5522;BME280;2783;48.730;8.006;2023-02-03T04:33:57;101502.44;;;8.47;96.32
5522;BME280;2783;48.730;8.006;2023-02-03T04:36:23;101498.91;;;8.45;96.63
5522;BME280;2783;48.730;8.006;2023-02-03T04:38:48;101502.44;;;8.45;96.69
5522;BME280;2783;48.730;8.006;2023-02-03T04:41:14;101495.38;;;8.46;96.84
5522;BME280;2783;48.730;8.006;2023-02-03T04:43:39;101484.75;;;8.46;95.80
5522;BME280;2783;48.730;8.006;2023-02-03T04:46:04;101483.03;;;8.42;96.38
5522;BME280;2783;48.730;8.006;2023-02-03T04:48:30;101485.63;;;8.40;96.31
5522;BME280;2783;48.730;8.006;2023-02-03T04:50:59;101482.13;;;8.43;96.24
5522;BME280;2783;48.730;8.006;2023-02-03T04:53:24;101483.00;;;8.37;96.03
5522;BME280;2783;48.730;8.006;2023-02-03T04:55:50;101489.19;;;8.44;96.05
5522;BME280;2783;48.730;8.006;2023-02-03T04:58:15;101490.97;;;8.48;95.96
5522;BME280;2783;48.730;8.006;2023-02-03T05:00:40;101500.66;;;8.47;96.32
5522;BME280;2783;48.730;8.006;2023-02-03T05:03:05;101489.19;;;8.50;96.99
5522;BME280;2783;48.730;8.006;2023-02-03T05:05:31;101492.72;;;8.53;96.85
5522;BME280;2783;48.730;8.006;2023-02-03T05:07:56;101486.53;;;8.56;96.71
5522;BME280;2783;48.730;8.006;2023-02-03T05:10:21;101488.28;;;8.57;97.08
5522;BME280;2783;48.730;8.006;2023-02-03T05:12:46;101491.81;;;8.60;96.97
5522;BME280;2783;48.730;8.006;2023-02-03T05:15:12;101492.72;;;8.61;96.81
5522;BME280;2783;48.730;8.006;2023-02-03T05:17:37;101486.53;;;8.59;96.87
5522;BME280;2783;48.730;8.006;2023-02-03T05:20:04;101500.66;;;8.62;96.85
5522;BME280;2783;48.730;8.006;2023-02-03T05:22:29;101501.56;;;8.60;96.36
5522;BME280;2783;48.730;8.006;2023-02-03T05:24:55;101500.66;;;8.61;96.23
5522;BME280;2783;48.730;8.006;2023-02-03T05:27:20;101497.13;;;8.63;95.90
5522;BME280;2783;48.730;8.006;2023-02-03T05:29:45;101498.91;;;8.60;96.28
5522;BME280;2783;48.730;8.006;2023-02-03T05:32:10;101498.03;;;8.58;95.84
5522;BME280;2783;48.730;8.006;2023-02-03T05:34:36;101499.78;;;8.59;96.21
5522;BME280;2783;48.730;8.006;2023-02-03T05:37:01;101506.84;;;8.57;95.96
5522;BME280;2783;48.730;8.006;2023-02-03T05:39:27;101511.28;;;8.55;95.90
5522;BME280;2783;48.730;8.006;2023-02-03T05:41:53;101501.56;;;8.42;95.69
5522;BME280;2783;48.730;8.006;2023-02-03T05:44:19;101509.50;;;8.49;96.27
5522;BME280;2783;48.730;8.006;2023-02-03T05:46:44;101511.28;;;8.46;95.82
5522;BME280;2783;48.730;8.006;2023-02-03T05:49:09;101506.84;;;8.54;95.87
5522;BME280;2783;48.730;8.006;2023-02-03T05:51:35;101512.16;;;8.51;95.62
5522;BME280;2783;48.730;8.006;2023-02-03T05:54:00;101531.63;;;8.56;95.76
5522;BME280;2783;48.730;8.006;2023-02-03T05:56:25;101524.53;;;8.58;95.75
5522;BME280;2783;48.730;8.006;2023-02-03T05:58:50;101513.91;;;8.52;95.46
5522;BME280;2783;48.730;8.006;2023-02-03T06:01:17;101505.97;;;8.46;95.71
5522;BME280;2783;48.730;8.006;2023-02-03T06:03:43;101492.72;;;8.49;95.89
5522;BME280;2783;48.730;8.006;2023-02-03T06:06:08;101500.69;;;8.41;96.13
5522;BME280;2783;48.730;8.006;2023-02-03T06:08:34;101513.94;;;8.43;95.90
5522;BME280;2783;48.730;8.006;2023-02-03T06:10:59;101523.66;;;8.45;95.82
5522;BME280;2783;48.730;8.006;2023-02-03T06:13:24;101540.44;;;8.46;96.14
5522;BME280;2783;48.730;8.006;2023-02-03T06:15:50;101547.50;;;8.47;96.03
5522;BME280;2783;48.730;8.006;2023-02-03T06:18:15;101538.69;;;8.45;96.30
5522;BME280;2783;48.730;8.006;2023-02-03T06:20:40;101522.78;;;8.42;96.38
5522;BME280;2783;48.730;8.006;2023-02-03T06:23:06;101497.16;;;8.33;96.73
5522;BME280;2783;48.730;8.006;2023-02-03T06:25:31;101484.78;;;8.28;97.50
5522;BME280;2783;48.730;8.006;2023-02-03T06:27:57;101490.06;;;8.28;98.26
5522;BME280;2783;48.730;8.006;2023-02-03T06:30:22;101495.34;;;8.20;98.39
5522;BME280;2783;48.730;8.006;2023-02-03T06:32:48;101494.47;;;8.17;98.95
5522;BME280;2783;48.730;8.006;2023-02-03T06:35:13;101496.22;;;8.12;99.51
5522;BME280;2783;48.730;8.006;2023-02-03T06:37:39;101497.97;;;8.11;99.55
5522;BME280;2783;48.730;8.006;2023-02-03T06:40:05;101497.97;;;8.07;100.00
5522;BME280;2783;48.730;8.006;2023-02-03T06:42:30;101496.22;;;8.12;100.00
5522;BME280;2783;48.730;8.006;2023-02-03T06:44:56;101510.34;;;8.11;100.00
5522;BME280;2783;48.730;8.006;2023-02-03T06:47:21;101513.03;;;8.12;100.00
5522;BME280;2783;48.730;8.006;2023-02-03T06:49:46;101512.13;;;8.12;100.00
5522;BME280;2783;48.730;8.006;2023-02-03T06:52:12;101509.44;;;8.02;100.00
5522;BME280;2783;48.730;8.006;2023-02-03T06:54:38;101496.22;;;8.12;100.00
5522;BME280;2783;48.730;8.006;2023-02-03T06:57:03;101497.97;;;8.13;100.00
5522;BME280;2783;48.730;8.006;2023-02-03T06:59:28;101509.47;;;8.15;100.00
5522;BME280;2783;48.730;8.006;2023-02-03T07:01:54;101512.13;;;8.18;100.00
5522;BME280;2783;48.730;8.006;2023-02-03T07:04:19;101499.75;;;8.17;100.00
5522;BME280;2783;48.730;8.006;2023-02-03T07:06:44;101501.53;;;8.18;100.00
5522;BME280;2783;48.730;8.006;2023-02-03T07:09:09;101485.63;;;8.18;100.00
5522;BME280;2783;48.730;8.006;2023-02-03T07:11:35;101506.81;;;8.15;100.00
5522;BME280;2783;48.730;8.006;2023-02-03T07:14:00;101513.88;;;8.16;100.00
5522;BME280;2783;48.730;8.006;2023-02-03T07:16:26;101492.72;;;8.19;100.00
5522;BME280;2783;48.730;8.006;2023-02-03T07:18:51;101478.56;;;8.14;100.00
5522;BME280;2783;48.730;8.006;2023-02-03T07:21:17;101483.84;;;8.20;100.00
5522;BME280;2783;48.730;8.006;2023-02-03T07:23:45;101481.22;;;8.26;100.00
5522;BME280;2783;48.730;8.006;2023-02-03T07:26:10;101490.97;;;8.27;100.00
5522;BME280;2783;48.730;8.006;2023-02-03T07:28:35;101482.13;;;8.25;100.00
5522;BME280;2783;48.730;8.006;2023-02-03T07:31:01;101485.66;;;8.30;100.00
5522;BME280;2783;48.730;8.006;2023-02-03T07:33:28;101483.00;;;8.30;100.00
5522;BME280;2783;48.730;8.006;2023-02-03T07:35:54;101490.06;;;8.31;100.00
5522;BME280;2783;48.730;8.006;2023-02-03T07:38:20;101498.03;;;8.31;100.00
5522;BME280;2783;48.730;8.006;2023-02-03T07:40:46;101491.81;;;8.29;100.00
5522;BME280;2783;48.730;8.006;2023-02-03T07:43:11;101498.03;;;8.28;100.00
5522;BME280;2783;48.730;8.006;2023-02-03T07:45:36;101505.09;;;8.27;100.00
5522;BME280;2783;48.730;8.006;2023-02-03T07:48:02;101506.88;;;8.30;100.00
5522;BME280;2783;48.730;8.006;2023-02-03T07:50:27;101511.28;;;8.26;100.00
5522;BME280;2783;48.730;8.006;2023-02-03T07:52:52;101517.47;;;8.30;100.00
5522;BME280;2783;48.730;8.006;2023-02-03T07:55:19;101528.97;;;8.35;100.00
5522;BME280;2783;48.730;8.006;2023-02-03T07:57:44;101537.78;;;8.32;100.00
5522;BME280;2783;48.730;8.006;2023-02-03T08:00:11;101528.97;;;8.32;100.00
5522;BME280;2783;48.730;8.006;2023-02-03T08:02:36;101522.75;;;8.39;100.00
5522;BME280;2783;48.730;8.006;2023-02-03T08:05:02;101526.31;;;8.44;100.00
5522;BME280;2783;48.730;8.006;2023-02-03T08:07:27;101530.75;;;8.42;99.89
5522;BME280;2783;48.730;8.006;2023-02-03T08:09:52;101539.59;;;8.48;99.66
5522;BME280;2783;48.730;8.006;2023-02-03T08:12:17;101552.84;;;8.50;99.53
5522;BME280;2783;48.730;8.006;2023-02-03T08:14:43;101555.47;;;8.53;99.58
5522;BME280;2783;48.730;8.006;2023-02-03T08:17:08;101565.19;;;8.57;99.59
5522;BME280;2783;48.730;8.006;2023-02-03T08:19:33;101577.59;;;8.58;99.46
5522;BME280;2783;48.730;8.006;2023-02-03T08:21:59;101566.97;;;8.58;99.77
5522;BME280;2783;48.730;8.006;2023-02-03T08:24:24;101568.72;;;8.63;99.20
5522;BME280;2783;48.730;8.006;2023-02-03T08:26:49;101560.78;;;8.60;99.08
5522;BME280;2783;48.730;8.006;2023-02-03T08:29:16;101557.25;;;8.61;99.40
5522;BME280;2783;48.730;8.006;2023-02-03T08:31:42;101552.81;;;8.63;99.26
5522;BME280;2783;48.730;8.006;2023-02-03T08:34:08;101543.09;;;8.65;99.05
5522;BME280;2783;48.730;8.006;2023-02-03T08:36:33;101559.91;;;8.60;99.02
5522;BME280;2783;48.730;8.006;2023-02-03T08:39:00;101568.75;;;8.71;99.23
5522;BME280;2783;48.730;8.006;2023-02-03T08:41:26;101573.16;;;8.69;98.86
5522;BME280;2783;48.730;8.006;2023-02-03T08:43:51;101574.03;;;8.74;98.79
5522;BME280;2783;48.730;8.006;2023-02-03T08:46:18;101577.56;;;8.79;98.94
5522;BME280;2783;48.730;8.006;2023-02-03T08:48:43;101577.56;;;8.79;98.66
5522;BME280;2783;48.730;8.006;2023-02-03T08:51:12;101583.78;;;8.81;98.96
5522;BME280;2783;48.730;8.006;2023-02-03T08:53:38;101582.88;;;8.82;98.71
5522;BME280;2783;48.730;8.006;2023-02-03T08:56:06;101584.66;;;8.89;98.36
5522;BME280;2783;48.730;8.006;2023-02-03T08:58:31;101577.56;;;8.94;98.52
5522;BME280;2783;48.730;8.006;2023-02-03T09:01:04;101581.13;;;8.96;98.55
5522;BME280;2783;48.730;8.006;2023-02-03T09:03:29;101574.00;;;8.98;98.00
5522;BME280;2783;48.730;8.006;2023-02-03T09:05:54;101574.91;;;8.92;98.52
5522;BME280;2783;48.730;8.006;2023-02-03T09:08:21;101574.03;;;8.87;97.86
5522;BME280;2783;48.730;8.006;2023-02-03T09:10:46;101574.91;;;8.86;98.53
5522;BME280;2783;48.730;8.006;2023-02-03T09:13:11;101572.25;;;8.92;98.40
5522;BME280;2783;48.730;8.006;2023-02-03T09:15:37;101581.97;;;8.95;98.38
5522;BME280;2783;48.730;8.006;2023-02-03T09:18:02;101566.94;;;8.83;98.55
5522;BME280;2783;48.730;8.006;2023-02-03T09:20:27;101559.88;;;8.91;98.82
5522;BME280;2783;48.730;8.006;2023-02-03T09:22:53;101560.75;;;9.01;98.61
5522;BME280;2783;48.730;8.006;2023-02-03T09:25:19;101556.28;;;9.15;98.16
5522;BME280;2783;48.730;8.006;2023-02-03T09:27:44;101560.72;;;9.20;97.78
5522;BME280;2783;48.730;8.006;2023-02-03T09:30:09;101563.38;;;9.20;97.63
5522;BME280;2783;48.730;8.006;2023-02-03T09:32:35;101557.16;;;9.23;97.45
5522;BME280;2783;48.730;8.006;2023-02-03T09:35:00;101511.16;;;9.13;97.25
5522;BME280;2783;48.730;8.006;2023-02-03T09:37:27;101558.91;;;9.28;96.64
5522;BME280;2783;48.730;8.006;2023-02-03T09:39:53;101560.66;;;9.40;96.78
5522;BME280;2783;48.730;8.006;2023-02-03T09:45:27;101558.88;;;9.36;95.67
5522;BME280;2783;48.730;8.006;2023-02-03T09:47:36;101566.84;;;9.44;95.75
5522;BME280;2783;48.730;8.006;2023-02-03T09:50:21;101559.75;;;9.41;95.69
5522;BME280;2783;48.730;8.006;2023-02-03T09:52:47;101551.78;;;9.43;95.58
5522;BME280;2783;48.730;8.006;2023-02-03T09:57:40;101560.63;;;9.45;95.59
5522;BME280;2783;48.730;8.006;2023-02-03T10:00:21;101542.94;;;9.47;95.74
5522;BME280;2783;48.730;8.006;2023-02-03T10:07:53;101534.88;;;9.63;94.66
5522;BME280;2783;48.730;8.006;2023-02-03T10:10:25;101534.91;;;9.54;94.47
5522;BME280;2783;48.730;8.006;2023-02-03T10:20:18;101542.88;;;9.53;96.21
5522;BME280;2783;48.730;8.006;2023-02-03T10:22:55;101538.44;;;9.56;96.34
5522;BME280;2783;48.730;8.006;2023-02-03T10:27:50;101552.47;;;9.91;95.61
5522;BME280;2783;48.730;8.006;2023-02-03T10:30:18;101570.97;;;10.03;93.75
5522;BME280;2783;48.730;8.006;2023-02-03T10:32:43;101571.88;;;10.02;93.31
5522;BME280;2783;48.730;8.006;2023-02-03T10:35:12;101577.19;;;10.11;92.29
5522;BME280;2783;48.730;8.006;2023-02-03T10:37:44;101562.97;;;10.15;92.27
5522;BME280;2783;48.730;8.006;2023-02-03T10:40:13;101557.63;;;10.18;92.50
5522;BME280;2783;48.730;8.006;2023-02-03T10:42:38;101561.22;;;10.08;91.42
5522;BME280;2783;48.730;8.006;2023-02-03T10:45:22;101555.03;;;10.05;92.47
5522;BME280;2783;48.730;8.006;2023-02-03T10:47:51;101565.69;;;9.99;91.43
5522;BME280;2783;48.730;8.006;2023-02-03T10:50:19;101553.31;;;9.96;91.50
5522;BME280;2783;48.730;8.006;2023-02-03T10:52:45;101550.66;;;9.92;92.59
5522;BME280;2783;48.730;8.006;2023-02-03T10:57:51;101547.06;;;10.06;92.69
5522;BME280;2783;48.730;8.006;2023-02-03T11:02:42;101549.69;;;10.12;94.07
5522;BME280;2783;48.730;8.006;2023-02-03T11:05:28;101539.97;;;10.02;93.12
5522;BME280;2783;48.730;8.006;2023-02-03T11:07:53;101526.66;;;10.14;94.16
5522;BME280;2783;48.730;8.006;2023-02-03T11:10:25;101526.56;;;10.28;94.00
5522;BME280;2783;48.730;8.006;2023-02-03T11:12:50;101531.72;;;10.44;92.67
5522;BME280;2783;48.730;8.006;2023-02-03T11:15:16;101522.81;;;10.50;92.28
5522;BME280;2783;48.730;8.006;2023-02-03T11:17:42;101504.13;;;10.60;91.13
5522;BME280;2783;48.730;8.006;2023-02-03T11:20:12;101505.75;;;10.74;91.53
5522;BME280;2783;48.730;8.006;2023-02-03T11:22:38;101511.81;;;10.89;90.45
5522;BME280;2783;48.730;8.006;2023-02-03T11:25:15;101494.75;;;11.10;90.14
5522;BME280;2783;48.730;8.006;2023-02-03T11:27:42;101506.19;;;11.18;88.33
5522;BME280;2783;48.730;8.006;2023-02-03T11:32:36;101502.59;;;11.22;86.80
5522;BME280;2783;48.730;8.006;2023-02-03T11:35:18;101489.28;;;11.19;86.97
5522;BME280;2783;48.730;8.006;2023-02-03T11:37:47;101489.44;;;11.07;86.12
5522;BME280;2783;48.730;8.006;2023-02-03T11:47:48;101509.03;;;11.00;86.82
5522;BME280;2783;48.730;8.006;2023-02-03T11:52:58;101490.94;;;11.29;85.65
5522;BME280;2783;48.730;8.006;2023-02-03T11:55:31;101497.06;;;11.35;84.21
5522;BME280;2783;48.730;8.006;2023-02-03T12:10:42;101476.88;;;12.42;75.18
5522;BME280;2783;48.730;8.006;2023-02-03T12:20:55;101465.16;;;13.44;69.00
5522;BME280;2783;48.730;8.006;2023-02-03T12:25:59;101486.72;;;13.35;68.21
5522;BME280;2783;48.730;8.006;2023-02-03T12:28:34;101482.03;;;13.03;67.49
5522;BME280;2783;48.730;8.006;2023-02-03T12:31:10;101483.28;;;12.82;69.24
5522;BME280;2783;48.730;8.006;2023-02-03T12:33:41;101480.06;;;12.64;70.46
5522;BME280;2783;48.730;8.006;2023-02-03T12:36:10;101477.03;;;12.33;70.52
5522;BME280;2783;48.730;8.006;2023-02-03T12:41:07;101481.00;;;12.08;72.19
5522;BME280;2783;48.730;8.006;2023-02-03T12:43:39;101477.50;;;12.03;73.02
5522;BME280;2783;48.730;8.006;2023-02-03T12:46:16;101463.25;;;12.07;73.88
5522;BME280;2783;48.730;8.006;2023-02-03T12:48:52;101457.97;;;12.01;73.50
5522;BME280;2783;48.730;8.006;2023-02-03T12:51:27;101473.16;;;11.99;74.73
5522;BME280;2783;48.730;8.006;2023-02-03T12:53:56;101474.25;;;11.86;74.16
5522;BME280;2783;48.730;8.006;2023-02-03T12:56:26;101477.81;;;11.83;74.60
5522;BME280;2783;48.730;8.006;2023-02-03T12:58:56;101469.69;;;11.93;74.03
5522;BME280;2783;48.730;8.006;2023-02-03T13:01:27;101475.94;;;11.90;73.33
5522;BME280;2783;48.730;8.006;2023-02-03T13:04:10;101475.16;;;11.83;73.89
5522;BME280;2783;48.730;8.006;2023-02-03T13:06:40;101487.63;;;11.81;73.98
5522;BME280;2783;48.730;8.006;2023-02-03T13:09:26;101472.47;;;11.85;75.09
5522;BME280;2783;48.730;8.006;2023-02-03T13:16:53;101477.00;;;11.78;75.21
5522;BME280;2783;48.730;8.006;2023-02-03T13:19:20;101469.13;;;11.71;75.14
5522;BME280;2783;48.730;8.006;2023-02-03T13:21:47;101468.41;;;11.55;76.54
5522;BME280;2783;48.730;8.006;2023-02-03T13:24:15;101460.34;;;11.64;76.75
5522;BME280;2783;48.730;8.006;2023-02-03T13:27:06;101430.88;;;11.72;76.63
5522;BME280;2783;48.730;8.006;2023-02-03T13:32:06;101388.47;;;11.55;76.54
5522;BME280;2783;48.730;8.006;2023-02-03T13:39:40;101428.34;;;11.60;77.80
5522;BME280;2783;48.730;8.006;2023-02-03T13:42:18;101433.69;;;11.60;77.11
5522;BME280;2783;48.730;8.006;2023-02-03T13:44:46;101428.56;;;11.48;77.12
5522;BME280;2783;48.730;8.006;2023-02-03T13:47:15;101435.53;;;11.58;77.29
5522;BME280;2783;48.730;8.006;2023-02-03T13:49:43;101436.34;;;11.64;77.43
5522;BME280;2783;48.730;8.006;2023-02-03T13:52:22;101431.00;;;11.63;77.26
5522;BME280;2783;48.730;8.006;2023-02-03T13:54:48;101424.88;;;11.56;78.12
5522;BME280;2783;48.730;8.006;2023-02-03T13:57:31;101424.06;;;11.51;78.42
5522;BME280;2783;48.730;8.006;2023-02-03T13:59:58;101396.69;;;11.39;79.58
5522;BME280;2783;48.730;8.006;2023-02-03T14:04:49;101414.59;;;11.29;79.48
5522;BME280;2783;48.730;8.006;2023-02-03T14:07:32;101416.22;;;11.41;80.09
5522;BME280;2783;48.730;8.006;2023-02-03T14:12:32;101409.94;;;11.46;80.61
5522;BME280;2783;48.730;8.006;2023-02-03T14:15:00;101422.22;;;11.56;79.53
5522;BME280;2783;48.730;8.006;2023-02-03T14:20:00;101427.66;;;11.47;79.57
5522;BME280;2783;48.730;8.006;2023-02-03T14:22:26;101435.78;;;11.40;79.41
5522;BME280;2783;48.730;8.006;2023-02-03T14:24:51;101423.28;;;11.45;79.95
5522;BME280;2783;48.730;8.006;2023-02-03T14:27:19;101416.88;;;11.55;79.16
5522;BME280;2783;48.730;8.006;2023-02-03T14:29:45;101418.63;;;11.59;79.49
5522;BME280;2783;48.730;8.006;2023-02-03T14:32:33;101428.34;;;11.60;78.74
5522;BME280;2783;48.730;8.006;2023-02-03T14:35:15;101424.84;;;11.58;79.73
5522;BME280;2783;48.730;8.006;2023-02-03T14:37:41;101426.59;;;11.59;78.94
5522;BME280;2783;48.730;8.006;2023-02-03T14:40:18;101416.91;;;11.53;79.21
5522;BME280;2783;48.730;8.006;2023-02-03T14:48:14;101422.38;;;11.44;79.16
5522;BME280;2783;48.730;8.006;2023-02-03T14:55:57;101439.31;;;11.39;79.36
5522;BME280;2783;48.730;8.006;2023-02-03T14:58:33;101434.00;;;11.39;78.47
5522;BME280;2783;48.730;8.006;2023-02-03T15:01:02;101457.03;;;11.43;79.85
5522;BME280;2783;48.730;8.006;2023-02-03T15:03:28;101455.25;;;11.45;79.94